createdAt,value
2018-06-24T00:05:45.553Z,0
2018-06-24T00:15:45.428Z,0
2018-06-24T00:25:46.364Z,0
2018-06-24T00:35:45.244Z,0
2018-06-24T00:45:45.374Z,0
2018-06-24T00:55:45.280Z,0
2018-06-24T01:05:46.393Z,0
2018-06-24T01:15:45.653Z,0
2018-06-24T01:25:46.187Z,0
2018-06-24T01:35:45.380Z,0
2018-06-24T01:45:45.412Z,0
2018-06-24T02:06:32.909Z,0
2018-06-24T02:07:13.410Z,0
2018-06-24T02:17:13.436Z,0
2018-06-24T02:27:13.495Z,0
2018-06-24T02:37:13.492Z,0
2018-06-24T02:47:13.540Z,0
2018-06-24T02:58:39.680Z,0
2018-06-24T03:08:39.810Z,0
2018-06-24T03:18:39.681Z,0
2018-06-24T03:28:39.791Z,5
2018-06-24T03:38:39.782Z,10
2018-06-24T03:48:40.725Z,10
2018-06-24T03:58:39.817Z,25
2018-06-24T04:08:39.875Z,20
2018-06-24T04:18:39.886Z,35
2018-06-24T04:28:39.766Z,45
2018-06-24T04:38:39.881Z,55
2018-06-24T04:48:39.859Z,50
2018-06-24T04:58:39.909Z,65
2018-06-24T05:08:39.867Z,95
2018-06-24T05:18:39.992Z,75
2018-06-24T05:28:39.880Z,110
2018-06-24T05:38:39.866Z,120
2018-06-24T05:48:39.921Z,100
2018-06-24T05:58:39.949Z,115
2018-06-24T06:08:39.923Z,130
2018-06-24T06:18:39.893Z,100
2018-06-24T06:28:39.993Z,100
2018-06-24T06:38:39.992Z,150
2018-06-24T06:48:39.988Z,180
2018-06-24T06:58:39.975Z,175
2018-06-24T07:08:40.189Z,160
2018-06-24T07:18:40.028Z,165
2018-06-24T07:28:40.051Z,215
2018-06-24T07:38:40.101Z,265
2018-06-24T07:55:07.897Z,205
2018-06-24T07:58:40.125Z,190
2018-06-24T08:08:40.465Z,205
2018-06-24T08:18:40.142Z,240
2018-06-24T08:28:39.986Z,185
2018-06-24T08:38:51.460Z,225
2018-06-24T08:48:49.976Z,275
2018-06-24T08:58:39.984Z,255
2018-06-24T09:08:40.056Z,270
2018-06-24T09:18:40.073Z,160
2018-06-24T09:28:40.045Z,120
2018-06-24T09:38:40.024Z,315
2018-06-24T09:48:39.988Z,205
2018-06-24T09:58:40.090Z,360
2018-06-24T10:08:40.350Z,285
2018-06-24T10:18:39.943Z,270
2018-06-24T10:28:40.095Z,310
2018-06-24T10:38:40.227Z,180
2018-06-24T10:48:40.024Z,250
2018-06-24T10:58:40.072Z,245
2018-06-24T11:08:39.970Z,255
2018-06-24T11:18:40.273Z,320
2018-06-24T11:28:41.030Z,265
2018-06-24T11:38:40.078Z,275
2018-06-24T11:48:40.074Z,175
2018-06-24T11:58:39.981Z,200
2018-06-24T12:08:40.058Z,205
2018-06-24T12:18:40.036Z,230
2018-06-24T12:28:40.105Z,265
2018-06-24T12:38:40.002Z,150
2018-06-24T12:48:40.105Z,205
2018-06-24T12:58:40.130Z,185
2018-06-24T13:08:40.393Z,305
2018-06-24T13:18:40.091Z,135
2018-06-24T13:28:40.319Z,145
2018-06-24T13:38:40.321Z,200
2018-06-24T13:48:40.169Z,175
2018-06-24T13:58:41.202Z,195
2018-06-24T14:08:41.602Z,110
2018-06-24T14:18:40.386Z,160
2018-06-24T14:28:40.151Z,130
2018-06-24T14:38:40.175Z,95
2018-06-24T14:48:41.135Z,100
2018-06-24T14:58:40.266Z,90
2018-06-24T15:08:40.168Z,80
2018-06-24T15:18:40.205Z,110
2018-06-24T15:28:43.777Z,135
2018-06-24T15:38:40.252Z,90
2018-06-24T15:48:40.325Z,90
2018-06-24T15:58:40.256Z,90
2018-06-24T16:08:40.440Z,70
2018-06-24T16:18:40.279Z,50
2018-06-24T16:28:40.505Z,65
2018-06-24T16:38:40.343Z,115
2018-06-24T16:48:40.426Z,50
2018-06-24T16:58:40.959Z,50
2018-06-24T17:08:40.322Z,20
2018-06-24T17:18:40.348Z,25
2018-06-24T17:28:41.893Z,30
2018-06-24T17:38:41.641Z,90
2018-06-24T17:48:41.173Z,105
2018-06-24T17:58:41.549Z,80
2018-06-24T18:08:40.362Z,70
2018-06-24T18:18:40.380Z,20
2018-06-24T18:39:27.194Z,40
2018-06-24T18:40:07.822Z,40
2018-06-24T18:50:08.836Z,15
2018-06-24T19:00:08.530Z,15
2018-06-24T19:10:09.852Z,5
2018-06-24T19:20:07.886Z,0
2018-06-24T19:30:08.003Z,5
2018-06-24T19:40:07.981Z,5
2018-06-24T19:50:08.026Z,0
2018-06-24T20:00:07.897Z,0
2018-06-24T20:10:08.544Z,0
2018-06-24T20:20:08.540Z,0
2018-06-24T20:30:08.829Z,0
2018-06-24T20:40:11.323Z,0
2018-06-24T20:50:08.225Z,0
2018-06-24T21:00:07.905Z,0
2018-06-24T21:10:08.048Z,0
2018-06-24T21:20:25.340Z,0
2018-06-24T21:30:07.978Z,0
2018-06-24T21:40:07.987Z,0
2018-06-24T21:50:07.992Z,0
2018-06-24T22:00:08.172Z,0
2018-06-24T22:10:08.168Z,0
2018-06-24T22:20:08.916Z,0
2018-06-24T22:30:08.040Z,0
2018-06-24T22:40:08.150Z,0
2018-06-24T22:50:08.021Z,0
2018-06-24T23:00:08.249Z,0
2018-06-24T23:10:08.885Z,0
2018-06-24T23:20:08.505Z,0
2018-06-24T23:30:08.108Z,0
2018-06-24T23:40:08.240Z,0
2018-06-24T23:50:08.087Z,0
